CPX654 Details

Departure: The Florida Keys Marathon International Airport (KMTH)
Arrival: Key West International Airport (KEYW) at N/A
Route: JANKA
Notes:


Current Weather Information
KMTH 230853Z AUTO 03007KT 10SM FEW030 FEW036 28/23 A2995 RMK AO2 SLP142 T02830233 55009
KEYW 230853Z AUTO 03008KT 10SM CLR 28/23 A2995 RMK AO2 SLP142 T02780233 56014